createdAt,value
2023-09-08T00:00:43.978Z,12.3
2023-09-08T00:05:56.079Z,12.2
2023-09-08T00:11:08.119Z,12.1
2023-09-08T00:16:20.133Z,12.1
2023-09-08T00:21:32.154Z,12
2023-09-08T00:26:44.336Z,12
2023-09-08T00:31:56.449Z,11.9
2023-09-08T00:37:08.552Z,11.8
2023-09-08T00:42:20.464Z,11.7
2023-09-08T00:47:32.558Z,11.7
2023-09-08T00:52:44.630Z,11.6
2023-09-08T00:57:56.576Z,11.6
2023-09-08T01:03:11.591Z,11.5
2023-09-08T01:08:23.745Z,11.5
2023-09-08T01:13:35.940Z,11.4
2023-09-08T01:18:47.946Z,11.4
2023-09-08T01:24:02.430Z,11.3
2023-09-08T01:29:14.534Z,11.3
2023-09-08T01:34:27.141Z,11.3
2023-09-08T01:39:39.261Z,11.3
2023-09-08T01:44:51.301Z,11.3
2023-09-08T01:50:03.355Z,11.3
2023-09-08T01:55:15.865Z,11.4
2023-09-08T02:00:27.993Z,11.3
2023-09-08T02:05:40.196Z,11.2
2023-09-08T02:10:52.307Z,11.1
2023-09-08T02:16:04.436Z,11.1
2023-09-08T02:21:16.646Z,11
2023-09-08T02:26:28.662Z,11
2023-09-08T02:31:40.578Z,11
2023-09-08T02:36:52.656Z,10.9
2023-09-08T02:42:04.690Z,10.8
2023-09-08T02:47:16.648Z,10.8
2023-09-08T02:52:28.837Z,10.7
2023-09-08T02:57:40.747Z,10.6
2023-09-08T03:02:52.819Z,10.6
2023-09-08T03:08:04.866Z,10.7
2023-09-08T03:13:16.858Z,10.6
2023-09-08T03:18:28.849Z,10.5
2023-09-08T03:23:40.833Z,10.4
2023-09-08T03:28:52.787Z,10.4
2023-09-08T03:34:04.757Z,10.3
2023-09-08T03:39:16.860Z,10.3
2023-09-08T03:44:28.934Z,10.3
2023-09-08T03:49:40.975Z,10.2
2023-09-08T03:54:53.532Z,10.1
2023-09-08T04:00:05.425Z,10
2023-09-08T04:05:17.945Z,9.9
2023-09-08T04:10:29.904Z,9.9
2023-09-08T04:15:41.867Z,9.9
2023-09-08T04:20:53.883Z,9.8
2023-09-08T04:26:05.841Z,9.7
2023-09-08T04:31:21.389Z,9.7
2023-09-08T04:36:33.451Z,9.6
2023-09-08T04:41:45.503Z,9.7
2023-09-08T04:46:57.441Z,9.6
2023-09-08T04:52:09.391Z,9.6
2023-09-08T04:57:24.218Z,9.6
2023-09-08T05:02:36.447Z,9.6
2023-09-08T05:07:48.484Z,9.8
2023-09-08T05:13:00.422Z,10.1
2023-09-08T05:18:12.549Z,10.7
2023-09-08T05:23:24.738Z,11.2
2023-09-08T05:28:39.429Z,11.8
2023-09-08T05:33:52.026Z,12.3
2023-09-08T05:39:04.033Z,12.9
2023-09-08T05:44:15.995Z,13.8
2023-09-08T05:49:28.070Z,14.6
2023-09-08T05:54:40.187Z,15.4
2023-09-08T05:59:52.147Z,16.2
2023-09-08T06:05:04.124Z,16.9
2023-09-08T06:10:16.208Z,17.6
2023-09-08T06:15:28.228Z,18.3
2023-09-08T06:20:40.269Z,18.9
2023-09-08T06:25:52.857Z,19.5
2023-09-08T06:31:04.806Z,20
2023-09-08T06:36:16.931Z,20.4
2023-09-08T06:41:28.920Z,20.8
2023-09-08T06:46:41.086Z,21.2
2023-09-08T06:51:53.207Z,21.3
2023-09-08T06:57:05.404Z,21.5
2023-09-08T07:02:17.587Z,21.7
2023-09-08T07:07:29.606Z,21.7
2023-09-08T07:18:02.678Z,21.6
2023-09-08T07:23:16.289Z,21.8
2023-09-08T07:28:28.183Z,22.1
2023-09-08T07:33:40.125Z,22.5
2023-09-08T07:38:52.181Z,23
2023-09-08T07:44:04.347Z,23.8
2023-09-08T07:49:16.355Z,24.4
2023-09-08T07:54:28.256Z,25.2
2023-09-08T07:59:40.209Z,25.9
2023-09-08T08:04:52.247Z,26.7
2023-09-08T08:10:04.221Z,27.2
2023-09-08T08:15:16.153Z,27.9
2023-09-08T08:20:29.149Z,28.6
2023-09-08T08:25:41.173Z,29.2
2023-09-08T08:36:13.174Z,29.8
2023-09-08T08:41:25.140Z,30.1
2023-09-08T08:46:37.095Z,30.6
2023-09-08T08:51:49.182Z,30.9
2023-09-08T08:57:07.593Z,31.1
2023-09-08T09:02:19.726Z,31.3
2023-09-08T09:07:31.794Z,31.5
2023-09-08T09:12:43.699Z,31.9
2023-09-08T09:17:57.229Z,32.4
2023-09-08T09:23:09.371Z,32.7
2023-09-08T09:28:21.492Z,33.2
2023-09-08T09:33:33.475Z,33.2
2023-09-08T09:38:47.825Z,33.4
2023-09-08T09:43:59.836Z,33.6
2023-09-08T09:49:11.794Z,33.8
2023-09-08T09:54:23.908Z,34.1
2023-09-08T09:59:35.827Z,34.1
2023-09-08T10:04:47.873Z,34.2
2023-09-08T10:09:59.781Z,34.7
2023-09-08T10:15:11.776Z,35
2023-09-08T10:20:23.720Z,35.2
2023-09-08T10:25:35.651Z,35.4
2023-09-08T10:30:47.630Z,35.7
2023-09-08T10:35:59.599Z,35.7
2023-09-08T10:41:11.557Z,36
2023-09-08T10:46:23.479Z,36.1
2023-09-08T10:51:35.444Z,35.2
2023-09-08T10:56:47.404Z,35.2
2023-09-08T11:01:59.934Z,35.5
2023-09-08T11:07:11.861Z,36
2023-09-08T11:12:25.545Z,36.1
2023-09-08T11:22:55.229Z,35
2023-09-08T11:28:07.380Z,35
2023-09-08T11:33:19.829Z,35.1
2023-09-08T11:38:34.589Z,35
2023-09-08T11:49:04.371Z,35.4
2023-09-08T11:54:16.362Z,35.7
2023-09-08T11:59:28.309Z,35.8
2023-09-08T12:04:40.208Z,36
2023-09-08T12:09:52.166Z,36.2
2023-09-08T12:15:04.079Z,36.2
2023-09-08T12:20:16.207Z,36.4
2023-09-08T12:25:28.246Z,36.4
2023-09-08T12:30:40.327Z,36.7
2023-09-08T12:35:52.641Z,36
2023-09-08T12:41:06.625Z,36.2
2023-09-08T12:46:18.613Z,36.1
2023-09-08T12:51:31.843Z,35.5
2023-09-08T12:56:43.730Z,34.8
2023-09-08T13:01:57.536Z,33.9
2023-09-08T13:07:09.808Z,33.2
2023-09-08T13:12:21.924Z,32.7
2023-09-08T13:17:33.908Z,33
2023-09-08T13:22:45.923Z,33.2
2023-09-08T13:27:57.917Z,32.6
2023-09-08T13:33:09.965Z,32.2
2023-09-08T13:43:39.620Z,31.3
2023-09-08T13:48:53.189Z,31.1
2023-09-08T13:54:08.195Z,30.9
2023-09-08T13:59:26.167Z,30.8
2023-09-08T14:04:41.214Z,30.8
2023-09-08T14:10:06.833Z,30.6
2023-09-08T14:15:31.770Z,30.6
2023-09-08T14:20:43.952Z,30.4
2023-09-08T14:26:00.183Z,30.7
2023-09-08T14:36:36.924Z,30.5
2023-09-08T14:41:49.017Z,30.5
2023-09-08T14:47:00.940Z,30.5
2023-09-08T14:52:12.858Z,30.3
2023-09-08T14:57:24.947Z,30.3
2023-09-08T15:02:37.028Z,30.3
2023-09-08T15:07:49.204Z,30.2
2023-09-08T15:13:01.238Z,30.1
2023-09-08T15:18:13.374Z,30.1
2023-09-08T15:23:25.446Z,29.9
2023-09-08T15:28:37.482Z,29.7
2023-09-08T15:33:49.561Z,29.4
2023-09-08T15:39:01.745Z,29.3
2023-09-08T15:44:15.395Z,29.2
2023-09-08T15:49:27.587Z,29.1
2023-09-08T15:54:40.736Z,29
2023-09-08T15:59:52.643Z,28.9
2023-09-08T16:05:04.744Z,28.8
2023-09-08T16:10:17.893Z,28.8
2023-09-08T16:15:30.318Z,28.7
2023-09-08T16:20:42.310Z,28.6
2023-09-08T16:25:54.240Z,28.5
2023-09-08T16:31:06.196Z,28.5
2023-09-08T16:36:18.221Z,28.4
2023-09-08T16:41:30.404Z,28.3
2023-09-08T16:46:42.363Z,28.1
2023-09-08T16:51:54.272Z,27.9
2023-09-08T16:57:07.907Z,27.8
2023-09-08T17:02:20.187Z,27.7
2023-09-08T17:07:32.784Z,27.5
2023-09-08T17:12:45.164Z,27.4
2023-09-08T17:17:57.167Z,27.3
2023-09-08T17:23:09.195Z,27.1
2023-09-08T17:33:41.327Z,26.8
2023-09-08T17:38:53.499Z,26.6
2023-09-08T17:44:05.475Z,26.4
2023-09-08T17:49:17.391Z,26.2
2023-09-08T17:54:30.440Z,25.9
2023-09-08T17:59:42.408Z,25.6
2023-09-08T18:04:54.336Z,25.4
2023-09-08T18:10:06.299Z,25.2
2023-09-08T18:15:19.998Z,24.9
2023-09-08T18:20:32.495Z,24.4
2023-09-08T18:25:44.559Z,24
2023-09-08T18:30:56.594Z,23.6
2023-09-08T18:36:08.733Z,23.2
2023-09-08T18:41:20.775Z,23
2023-09-08T18:46:32.732Z,22.7
2023-09-08T18:51:45.985Z,22.4
2023-09-08T18:56:58.394Z,22
2023-09-08T19:02:10.307Z,21.8
2023-09-08T19:07:22.288Z,21.5
2023-09-08T19:12:34.293Z,21.2
2023-09-08T19:17:46.336Z,20.9
2023-09-08T19:22:58.279Z,20.7
2023-09-08T19:28:10.234Z,20.6
2023-09-08T19:33:24.507Z,20.3
2023-09-08T19:38:36.535Z,20.1
2023-09-08T19:43:48.460Z,20
2023-09-08T19:49:00.427Z,19.8
2023-09-08T19:54:12.383Z,19.6
2023-09-08T19:59:25.806Z,19.4
2023-09-08T20:04:37.709Z,19.2
2023-09-08T20:09:49.616Z,19
2023-09-08T20:15:01.683Z,18.8
2023-09-08T20:20:13.782Z,18.6
2023-09-08T20:25:25.702Z,18.5
2023-09-08T20:30:37.661Z,18.4
2023-09-08T20:35:49.575Z,18.3
2023-09-08T20:41:01.467Z,18.1
2023-09-08T20:46:13.447Z,18
2023-09-08T20:51:25.424Z,17.9
2023-09-08T20:56:37.314Z,18
2023-09-08T21:01:53.706Z,18
2023-09-08T21:07:05.806Z,17.8
2023-09-08T21:12:17.925Z,17.7
2023-09-08T21:17:29.982Z,17.6
2023-09-08T21:22:46.047Z,17.4
2023-09-08T21:27:58.041Z,17.3
2023-09-08T21:33:10.305Z,17.2
2023-09-08T21:38:22.345Z,17.1
2023-09-08T21:43:34.457Z,16.9
2023-09-08T21:48:46.859Z,16.8
2023-09-08T21:53:58.825Z,16.6
2023-09-08T21:59:10.985Z,16.6
2023-09-08T22:04:23.367Z,16.5
2023-09-08T22:09:35.780Z,16.5
2023-09-08T22:14:50.376Z,16.4
2023-09-08T22:20:02.382Z,16.3
2023-09-08T22:25:14.457Z,16.2
2023-09-08T22:30:26.386Z,16.2
2023-09-08T22:35:40.881Z,16.1
2023-09-08T22:40:52.855Z,16
2023-09-08T22:46:05.680Z,15.9
2023-09-08T22:51:17.596Z,15.8
2023-09-08T22:56:30.305Z,15.7
2023-09-08T23:01:43.352Z,15.6
2023-09-08T23:06:55.286Z,15.6
2023-09-08T23:12:07.367Z,15.4
2023-09-08T23:17:24.040Z,15.3
2023-09-08T23:22:36.744Z,15.2
2023-09-08T23:27:49.508Z,15.1
2023-09-08T23:33:02.118Z,15
2023-09-08T23:38:15.438Z,15
2023-09-08T23:43:27.345Z,14.9
2023-09-08T23:48:39.822Z,14.8
2023-09-08T23:53:51.767Z,14.7
2023-09-08T23:59:05.395Z,14.7
